createdAt,value
2018-11-11T00:00:22.587Z,14.87
2018-11-11T00:02:51.463Z,14.17
2018-11-11T00:05:19.318Z,15.23
2018-11-11T00:07:47.052Z,14.53
2018-11-11T00:10:14.842Z,15.13
2018-11-11T00:12:42.886Z,14.80
2018-11-11T00:15:12.477Z,15.80
2018-11-11T00:17:41.113Z,15.00
2018-11-11T00:20:10.181Z,15.27
2018-11-11T00:22:38.386Z,15.27
2018-11-11T00:25:06.663Z,15.20
2018-11-11T00:27:34.939Z,16.60
2018-11-11T00:30:02.875Z,15.93
2018-11-11T00:32:30.674Z,15.47
2018-11-11T00:34:58.390Z,17.43
2018-11-11T00:37:26.123Z,17.27
2018-11-11T00:39:53.850Z,17.50
2018-11-11T00:42:21.606Z,18.23
2018-11-11T00:44:49.371Z,17.87
2018-11-11T00:47:17.110Z,18.03
2018-11-11T00:49:44.817Z,16.47
2018-11-11T00:52:12.534Z,17.00
2018-11-11T00:54:40.253Z,17.83
2018-11-11T00:57:08.397Z,17.67
2018-11-11T00:59:36.162Z,16.57
2018-11-11T01:02:04.003Z,18.40
2018-11-11T01:04:31.760Z,16.10
2018-11-11T01:06:59.506Z,16.77
2018-11-11T01:09:27.263Z,16.80
2018-11-11T01:11:55.041Z,17.70
2018-11-11T01:14:22.774Z,16.97
2018-11-11T01:16:50.525Z,16.60
2018-11-11T01:19:18.262Z,17.07
2018-11-11T01:21:45.980Z,16.10
2018-11-11T01:24:13.738Z,16.97
2018-11-11T01:26:41.499Z,16.43
2018-11-11T01:29:09.231Z,15.93
2018-11-11T01:31:37.002Z,15.77
2018-11-11T01:34:04.830Z,15.67
2018-11-11T01:36:32.557Z,15.07
2018-11-11T01:39:00.288Z,14.90
2018-11-11T01:41:28.067Z,15.60
2018-11-11T01:43:55.796Z,15.03
2018-11-11T01:46:23.554Z,14.33
2018-11-11T01:48:51.286Z,14.27
2018-11-11T01:51:19.022Z,15.23
2018-11-11T01:53:46.757Z,15.67
2018-11-11T01:56:14.496Z,15.50
2018-11-11T01:58:42.242Z,16.10
2018-11-11T02:01:09.981Z,15.73
2018-11-11T02:03:37.769Z,17.07
2018-11-11T02:06:05.570Z,18.13
2018-11-11T02:08:33.310Z,18.07
2018-11-11T02:11:01.058Z,18.47
2018-11-11T02:13:28.786Z,19.50
2018-11-11T02:15:56.548Z,19.73
2018-11-11T02:18:24.278Z,21.13
2018-11-11T02:20:52.022Z,20.97
2018-11-11T02:23:19.869Z,23.70
2018-11-11T02:25:47.583Z,24.37
2018-11-11T02:28:15.300Z,22.77
2018-11-11T02:30:43.037Z,24.00
2018-11-11T02:33:10.765Z,23.53
2018-11-11T02:35:38.497Z,21.67
2018-11-11T02:38:06.227Z,22.33
2018-11-11T02:40:33.958Z,20.77
2018-11-11T02:43:01.679Z,21.07
2018-11-11T02:45:29.398Z,21.63
2018-11-11T02:47:57.123Z,21.87
2018-11-11T02:50:24.929Z,18.67
2018-11-11T02:52:52.654Z,18.33
2018-11-11T02:55:20.373Z,18.83
2018-11-11T02:57:48.271Z,17.97
2018-11-11T03:00:17.271Z,18.33
2018-11-11T03:02:45.653Z,18.90
2018-11-11T03:05:14.478Z,19.33
2018-11-11T03:07:43.223Z,19.17
2018-11-11T03:10:11.913Z,19.27
2018-11-11T03:12:39.971Z,21.23
2018-11-11T03:15:08.953Z,19.23
2018-11-11T03:17:36.930Z,21.60
2018-11-11T03:20:05.447Z,20.73
2018-11-11T03:22:33.276Z,22.10
2018-11-11T03:25:01.039Z,22.97
2018-11-11T03:27:28.776Z,24.73
2018-11-11T03:29:56.671Z,23.53
2018-11-11T03:32:24.394Z,23.27
2018-11-11T03:34:52.203Z,24.03
2018-11-11T03:37:19.970Z,23.87
2018-11-11T03:39:47.774Z,23.63
2018-11-11T03:42:15.526Z,25.53
2018-11-11T03:44:43.258Z,26.70
2018-11-11T03:47:10.983Z,25.57
2018-11-11T03:49:38.705Z,26.27
2018-11-11T03:52:06.512Z,26.50
2018-11-11T03:54:34.509Z,26.23
2018-11-11T03:57:02.386Z,24.50
2018-11-11T03:59:30.119Z,24.83
2018-11-11T04:01:57.894Z,23.77
2018-11-11T04:04:25.635Z,24.97
2018-11-11T04:06:53.389Z,24.97
2018-11-11T04:09:21.128Z,24.10
2018-11-11T04:11:48.854Z,23.43
2018-11-11T04:14:16.618Z,24.67
2018-11-11T04:16:44.346Z,25.13
2018-11-11T04:19:12.058Z,24.67
2018-11-11T04:21:39.806Z,25.13
2018-11-11T04:24:08.039Z,24.20
2018-11-11T04:26:35.781Z,24.53
2018-11-11T04:29:03.655Z,24.83
2018-11-11T04:31:31.406Z,26.17
2018-11-11T04:33:59.135Z,24.90
2018-11-11T04:36:26.862Z,24.43
2018-11-11T04:38:54.682Z,25.90
2018-11-11T04:41:22.426Z,25.27
2018-11-11T04:43:50.234Z,24.87
2018-11-11T04:46:17.978Z,25.67
2018-11-11T04:48:45.983Z,24.20
2018-11-11T04:51:13.712Z,24.23
2018-11-11T04:53:41.434Z,22.90
2018-11-11T04:56:09.158Z,24.57
2018-11-11T04:58:36.876Z,25.00
2018-11-11T05:01:04.707Z,24.90
2018-11-11T05:03:32.435Z,23.57
2018-11-11T05:06:00.151Z,23.53
2018-11-11T05:08:27.867Z,24.27
2018-11-11T05:10:55.606Z,24.20
2018-11-11T05:13:23.314Z,24.27
2018-11-11T05:15:51.045Z,24.50
2018-11-11T05:18:18.776Z,25.13
2018-11-11T05:20:46.498Z,24.37
2018-11-11T05:23:14.216Z,24.23
2018-11-11T05:25:41.938Z,25.63
2018-11-11T05:28:09.662Z,23.23
2018-11-11T05:30:37.389Z,23.97
2018-11-11T05:33:05.203Z,23.53
2018-11-11T05:35:32.938Z,24.03
2018-11-11T05:38:00.662Z,22.27
2018-11-11T05:40:28.389Z,23.33
2018-11-11T05:42:56.134Z,22.83
2018-11-11T05:45:23.870Z,22.33
2018-11-11T05:47:51.615Z,22.17
2018-11-11T05:50:19.351Z,22.80
2018-11-11T05:52:47.157Z,21.80
2018-11-11T05:55:14.951Z,21.83
2018-11-11T05:57:42.693Z,25.57
2018-11-11T06:00:12.060Z,25.00
2018-11-11T06:02:39.924Z,23.57
2018-11-11T06:05:09.652Z,22.07
2018-11-11T06:07:37.626Z,23.53
2018-11-11T06:10:06.679Z,22.07
2018-11-11T06:12:34.398Z,23.27
2018-11-11T06:15:02.133Z,22.90
2018-11-11T06:17:29.865Z,23.07
2018-11-11T06:19:57.616Z,24.47
2018-11-11T06:22:25.346Z,24.67
2018-11-11T06:24:53.075Z,23.57
2018-11-11T06:27:20.877Z,25.67
2018-11-11T06:29:48.591Z,23.63
2018-11-11T06:32:16.315Z,23.33
2018-11-11T06:34:44.062Z,25.30
2018-11-11T06:37:11.794Z,25.10
2018-11-11T06:39:39.516Z,24.57
2018-11-11T06:42:07.242Z,24.53
2018-11-11T06:44:34.970Z,24.17
2018-11-11T06:47:02.703Z,23.37
2018-11-11T06:49:30.443Z,23.70
2018-11-11T06:51:58.175Z,21.87
2018-11-11T06:54:25.890Z,20.03
2018-11-11T06:56:53.847Z,19.63
2018-11-11T06:59:21.569Z,20.77
2018-11-11T07:01:49.296Z,21.30
2018-11-11T07:04:17.025Z,19.97
2018-11-11T07:06:44.745Z,19.23
2018-11-11T07:09:12.499Z,21.33
2018-11-11T07:11:40.232Z,20.80
2018-11-11T07:14:07.972Z,20.83
2018-11-11T07:16:35.739Z,21.90
2018-11-11T07:19:03.503Z,20.77
2018-11-11T07:21:31.218Z,20.27
2018-11-11T07:23:59.029Z,20.70
2018-11-11T07:26:27.414Z,20.80
2018-11-11T07:28:55.151Z,20.47
2018-11-11T07:31:22.894Z,20.20
2018-11-11T07:33:50.638Z,22.77
2018-11-11T07:36:18.354Z,20.70
2018-11-11T07:38:46.095Z,20.40
2018-11-11T07:41:13.838Z,19.77
2018-11-11T07:43:41.590Z,21.70
2018-11-11T07:46:09.314Z,22.10
2018-11-11T07:48:37.048Z,21.73
2018-11-11T07:51:04.927Z,21.13
2018-11-11T07:53:32.676Z,21.23
2018-11-11T07:56:00.399Z,21.67
2018-11-11T07:58:28.193Z,22.07
2018-11-11T08:00:55.947Z,20.83
2018-11-11T08:03:23.653Z,23.03
2018-11-11T08:05:51.399Z,23.13
2018-11-11T08:08:19.226Z,22.67
2018-11-11T08:10:58.337Z,22.37
2018-11-11T08:13:26.106Z,21.13
2018-11-11T08:15:53.842Z,22.30
2018-11-11T08:18:21.602Z,22.03
2018-11-11T08:20:49.362Z,25.13
2018-11-11T08:23:17.080Z,23.83
2018-11-11T08:25:44.812Z,22.87
2018-11-11T08:28:12.578Z,24.53
2018-11-11T08:30:40.311Z,22.40
2018-11-11T08:33:08.058Z,21.03
2018-11-11T08:35:35.801Z,21.87
2018-11-11T08:38:03.594Z,21.70
2018-11-11T08:40:31.388Z,21.57
2018-11-11T08:42:59.087Z,21.53
2018-11-11T08:45:26.875Z,22.37
2018-11-11T08:47:54.586Z,22.13
2018-11-11T08:50:22.326Z,22.90
2018-11-11T08:52:50.918Z,22.37
2018-11-11T08:55:18.662Z,22.20
2018-11-11T08:57:46.461Z,21.83
2018-11-11T09:00:14.954Z,20.57
2018-11-11T09:02:42.678Z,21.07
2018-11-11T09:05:10.447Z,21.23
2018-11-11T09:07:38.520Z,21.23
2018-11-11T09:10:09.094Z,21.87
2018-11-11T09:15:29.419Z,21.50
2018-11-11T09:17:57.142Z,21.60
2018-11-11T09:20:25.591Z,24.00
2018-11-11T09:22:53.340Z,24.13
2018-11-11T09:25:21.222Z,21.43
2018-11-11T09:27:48.918Z,21.53
2018-11-11T09:30:16.725Z,20.97
2018-11-11T09:32:44.503Z,22.00
2018-11-11T09:35:12.290Z,22.30
2018-11-11T09:37:40.461Z,24.17
2018-11-11T09:40:09.270Z,22.87
2018-11-11T09:42:37.118Z,23.97
2018-11-11T09:45:07.403Z,24.80
2018-11-11T09:47:35.254Z,23.47
2018-11-11T09:50:03.063Z,22.83
2018-11-11T09:52:30.784Z,22.33
2018-11-11T09:54:58.523Z,22.97
2018-11-11T09:57:26.350Z,23.43
2018-11-11T09:59:54.160Z,25.13
2018-11-11T10:02:21.927Z,23.37
2018-11-11T10:04:54.223Z,24.10
2018-11-11T10:07:28.488Z,23.50
2018-11-11T10:10:31.573Z,22.17
2018-11-11T10:13:03.756Z,23.67
2018-11-11T10:15:36.891Z,24.27
2018-11-11T10:18:12.887Z,23.43
2018-11-11T10:20:52.487Z,24.73
2018-11-11T10:23:27.975Z,24.57
2018-11-11T10:26:08.014Z,24.40
2018-11-11T10:30:46.457Z,22.80
2018-11-11T10:33:33.034Z,21.67
2018-11-11T10:37:04.975Z,22.77
2018-11-11T10:39:42.443Z,22.00
2018-11-11T10:42:15.727Z,25.07
2018-11-11T10:44:52.482Z,24.93
2018-11-11T10:47:55.042Z,25.13
2018-11-11T10:50:27.940Z,22.23
2018-11-11T10:52:55.691Z,23.70
2018-11-11T10:55:23.467Z,23.37
2018-11-11T10:57:51.223Z,22.63
2018-11-11T11:00:24.390Z,24.33
2018-11-11T11:02:54.158Z,24.43
2018-11-11T11:05:21.910Z,24.10
2018-11-11T11:07:49.643Z,24.03
2018-11-11T11:10:17.418Z,24.80
2018-11-11T11:12:45.418Z,25.40
2018-11-11T11:15:13.142Z,26.40
2018-11-11T11:17:40.888Z,25.07
2018-11-11T11:20:08.689Z,25.60
2018-11-11T11:22:36.439Z,25.17
2018-11-11T11:25:05.040Z,24.57
2018-11-11T11:27:32.795Z,25.73
2018-11-11T11:30:00.533Z,23.33
2018-11-11T11:32:28.381Z,22.57
2018-11-11T11:34:56.117Z,22.87
2018-11-11T11:37:23.860Z,22.57
2018-11-11T11:39:51.599Z,22.50
2018-11-11T11:42:19.343Z,20.77
2018-11-11T11:44:47.110Z,19.87
2018-11-11T11:47:14.843Z,19.17
2018-11-11T11:49:42.600Z,19.80
2018-11-11T11:52:10.378Z,18.40
2018-11-11T11:54:38.094Z,18.10
2018-11-11T11:57:05.897Z,17.47
2018-11-11T11:59:33.677Z,17.97
2018-11-11T12:02:01.439Z,17.93
2018-11-11T12:04:29.167Z,18.13
2018-11-11T12:06:56.894Z,18.60
2018-11-11T12:09:24.659Z,17.40
2018-11-11T12:11:52.423Z,16.97
2018-11-11T12:14:20.173Z,16.30
2018-11-11T12:16:48.121Z,15.73
2018-11-11T12:19:15.786Z,14.83
2018-11-11T12:21:43.530Z,15.73
2018-11-11T12:24:11.259Z,13.97
2018-11-11T12:26:39.006Z,9.87
2018-11-11T12:29:06.714Z,11.57
2018-11-11T12:31:34.447Z,11.70
2018-11-11T12:34:02.183Z,11.83
2018-11-11T12:36:29.898Z,10.80
2018-11-11T12:38:57.707Z,16.40
2018-11-11T12:41:25.411Z,11.47
2018-11-11T12:43:53.130Z,12.10
2018-11-11T12:46:20.873Z,13.03
2018-11-11T12:48:48.696Z,20.03
2018-11-11T12:51:16.438Z,12.30
2018-11-11T12:53:44.143Z,9.47
2018-11-11T12:56:11.866Z,10.10
2018-11-11T12:58:39.577Z,10.10
2018-11-11T13:01:07.318Z,7.67
2018-11-11T13:03:35.036Z,8.20
2018-11-11T13:06:02.789Z,17.90
2018-11-11T13:08:30.510Z,19.83
2018-11-11T13:10:58.255Z,14.00
2018-11-11T13:13:25.975Z,12.47
2018-11-11T13:15:53.698Z,10.40
2018-11-11T13:18:21.415Z,9.47
2018-11-11T13:20:49.172Z,12.80
2018-11-11T13:23:16.906Z,10.80
2018-11-11T13:25:44.651Z,8.60
2018-11-11T13:28:12.365Z,10.10
2018-11-11T13:30:40.103Z,9.47
2018-11-11T13:33:07.834Z,10.83
2018-11-11T13:35:35.566Z,9.20
2018-11-11T13:38:03.403Z,8.87
2018-11-11T13:40:31.076Z,9.40
2018-11-11T13:42:58.806Z,9.90
2018-11-11T13:45:26.543Z,8.43
2018-11-11T13:47:54.278Z,8.23
2018-11-11T13:50:24.225Z,8.07
2018-11-11T13:52:51.935Z,6.77
2018-11-11T13:55:20.515Z,7.33
2018-11-11T13:57:48.799Z,7.13
2018-11-11T14:00:26.110Z,7.00
2018-11-11T14:02:53.864Z,7.27
2018-11-11T14:05:21.647Z,9.57
2018-11-11T14:07:49.386Z,7.57
2018-11-11T14:10:17.433Z,8.40
2018-11-11T14:12:45.189Z,8.30
2018-11-11T14:15:19.120Z,9.67
2018-11-11T14:17:47.383Z,8.87
2018-11-11T14:20:16.269Z,9.10
2018-11-11T14:22:45.085Z,9.70
2018-11-11T14:25:16.376Z,10.53
2018-11-11T14:27:44.443Z,9.27
2018-11-11T14:30:14.894Z,10.50
2018-11-11T14:32:42.755Z,9.40
2018-11-11T14:35:11.265Z,10.00
2018-11-11T14:37:39.035Z,10.23
2018-11-11T14:40:09.638Z,10.80
2018-11-11T14:42:37.454Z,17.47
2018-11-11T14:45:05.799Z,13.43
2018-11-11T14:47:33.546Z,11.20
2018-11-11T14:50:01.323Z,10.97
2018-11-11T14:52:29.102Z,11.73
2018-11-11T14:54:56.785Z,12.00
2018-11-11T14:57:24.503Z,11.53
2018-11-11T14:59:52.232Z,11.33
2018-11-11T15:02:20.022Z,13.57
2018-11-11T15:04:47.731Z,14.33
2018-11-11T15:07:15.486Z,13.57
2018-11-11T15:09:47.131Z,13.17
2018-11-11T15:12:14.923Z,13.70
2018-11-11T15:14:42.737Z,14.53
2018-11-11T15:17:10.502Z,16.90
2018-11-11T15:19:38.495Z,16.90
2018-11-11T15:22:06.024Z,15.23
2018-11-11T15:24:34.700Z,16.03
2018-11-11T15:27:02.431Z,16.40
2018-11-11T15:29:30.187Z,16.30
2018-11-11T15:31:57.919Z,18.30
2018-11-11T15:34:25.654Z,18.50
2018-11-11T15:36:53.411Z,20.93
2018-11-11T15:39:21.168Z,26.63
2018-11-11T15:41:48.901Z,26.30
2018-11-11T15:44:16.655Z,26.00
2018-11-11T15:46:44.391Z,26.17
2018-11-11T15:49:12.129Z,26.63
2018-11-11T15:51:39.883Z,27.63
2018-11-11T15:54:07.640Z,26.33
2018-11-11T15:56:35.366Z,29.37
2018-11-11T15:59:03.100Z,28.07
2018-11-11T16:01:30.958Z,26.73
2018-11-11T16:03:58.695Z,32.03
2018-11-11T16:06:29.167Z,30.10
2018-11-11T16:08:57.803Z,31.33
2018-11-11T16:11:25.650Z,29.50
2018-11-11T16:13:53.610Z,29.60
2018-11-11T16:16:21.497Z,34.50
2018-11-11T16:18:49.285Z,32.73
2018-11-11T16:21:17.050Z,33.60
2018-11-11T16:23:44.971Z,36.30
2018-11-11T16:26:12.740Z,35.70
2018-11-11T16:28:40.519Z,37.70
2018-11-11T16:31:08.292Z,40.23
2018-11-11T16:33:36.090Z,37.80
2018-11-11T16:36:03.968Z,39.60
2018-11-11T16:38:31.743Z,41.80
2018-11-11T16:40:59.643Z,44.00
2018-11-11T16:43:27.358Z,52.00
2018-11-11T16:45:55.154Z,57.93
2018-11-11T16:48:23.054Z,58.70
2018-11-11T16:50:50.926Z,63.57
2018-11-11T16:53:18.694Z,61.97
2018-11-11T16:55:46.451Z,61.50
2018-11-11T16:58:14.408Z,64.07
2018-11-11T17:00:42.168Z,58.20
2018-11-11T17:03:09.987Z,58.43
2018-11-11T17:05:38.434Z,58.73
2018-11-11T17:08:08.924Z,56.73
2018-11-11T17:16:58.853Z,46.97
2018-11-11T17:19:26.690Z,46.43
2018-11-11T17:21:54.800Z,46.03
2018-11-11T17:24:22.423Z,43.80
2018-11-11T17:26:50.499Z,41.97
2018-11-11T17:29:18.559Z,42.47
2018-11-11T17:31:46.906Z,42.43
2018-11-11T17:34:14.764Z,42.53
2018-11-11T17:36:42.807Z,43.70
2018-11-11T17:39:11.425Z,42.20
2018-11-11T17:41:39.401Z,41.47
2018-11-11T17:44:07.564Z,42.20
2018-11-11T17:46:35.657Z,40.90
2018-11-11T17:49:03.682Z,42.63
2018-11-11T17:51:31.672Z,41.97
2018-11-11T17:53:59.634Z,42.70
2018-11-11T17:56:27.465Z,40.30
2018-11-11T17:58:55.411Z,43.23
2018-11-11T18:01:23.494Z,39.33
2018-11-11T18:03:51.468Z,38.63
2018-11-11T18:06:19.498Z,39.43
2018-11-11T18:08:48.122Z,36.00
2018-11-11T18:11:16.118Z,36.07
2018-11-11T18:13:45.907Z,36.50
2018-11-11T18:16:14.411Z,35.20
2018-11-11T18:18:42.607Z,36.43
2018-11-11T18:21:11.162Z,34.83
2018-11-11T18:23:38.998Z,35.03
2018-11-11T18:26:07.019Z,35.87
2018-11-11T18:28:34.953Z,35.43
2018-11-11T18:31:02.671Z,34.27
2018-11-11T18:33:30.922Z,34.03
2018-11-11T18:35:58.806Z,35.30
2018-11-11T18:38:26.533Z,34.03
2018-11-11T18:40:54.257Z,37.10
2018-11-11T18:43:22.042Z,35.33
2018-11-11T18:45:50.018Z,35.17
2018-11-11T18:48:17.956Z,35.33
2018-11-11T18:50:45.808Z,34.87
2018-11-11T18:53:13.593Z,35.30
2018-11-11T18:55:41.374Z,34.50
2018-11-11T18:58:09.209Z,34.30
2018-11-11T19:00:36.937Z,33.90
2018-11-11T19:03:04.787Z,35.07
2018-11-11T19:05:32.746Z,34.23
2018-11-11T19:08:00.476Z,32.87
2018-11-11T19:10:29.707Z,34.17
2018-11-11T19:12:59.222Z,31.43
2018-11-11T19:15:26.987Z,33.33
2018-11-11T19:17:54.779Z,34.07
2018-11-11T19:20:24.181Z,33.30
2018-11-11T19:22:51.895Z,33.73
2018-11-11T19:25:20.859Z,33.63
2018-11-11T19:27:49.703Z,32.80
2018-11-11T19:30:18.623Z,32.67
2018-11-11T19:32:47.842Z,31.27
2018-11-11T19:35:15.939Z,30.23
2018-11-11T19:37:44.697Z,29.10
2018-11-11T19:40:14.487Z,28.23
2018-11-11T19:42:42.698Z,27.23
2018-11-11T19:45:11.792Z,26.97
2018-11-11T19:47:40.112Z,27.10
2018-11-11T19:50:09.520Z,27.97
2018-11-11T19:52:37.426Z,28.53
2018-11-11T19:55:06.122Z,27.30
2018-11-11T19:57:33.839Z,27.97
2018-11-11T20:00:01.935Z,28.80
2018-11-11T20:02:29.775Z,28.40
2018-11-11T20:04:57.482Z,28.83
2018-11-11T20:07:25.235Z,28.80
2018-11-11T20:09:52.999Z,30.13
2018-11-11T20:12:20.728Z,29.57
2018-11-11T20:14:48.513Z,29.77
2018-11-11T20:17:16.266Z,32.07
2018-11-11T20:19:44.367Z,31.93
2018-11-11T20:22:12.103Z,32.40
2018-11-11T20:24:39.849Z,31.83
2018-11-11T20:27:07.602Z,31.43
2018-11-11T20:29:35.416Z,33.33
2018-11-11T20:32:10.810Z,34.83
2018-11-11T20:34:41.365Z,32.37
2018-11-11T20:37:09.143Z,31.43
2018-11-11T20:39:36.878Z,31.53
2018-11-11T20:42:09.831Z,29.93
2018-11-11T20:44:38.588Z,30.10
2018-11-11T20:47:13.240Z,29.83
2018-11-11T20:49:41.111Z,28.47
2018-11-11T20:52:08.898Z,30.13
2018-11-11T20:54:36.606Z,30.80
2018-11-11T20:57:04.349Z,33.30
2018-11-11T20:59:32.166Z,30.67
2018-11-11T21:01:59.910Z,30.67
2018-11-11T21:04:27.638Z,30.10
2018-11-11T21:06:55.682Z,30.03
2018-11-11T21:09:23.442Z,28.83
2018-11-11T21:11:51.188Z,27.17
2018-11-11T21:14:18.926Z,27.90
2018-11-11T21:16:46.994Z,27.80
2018-11-11T21:19:14.885Z,26.77
2018-11-11T21:21:43.403Z,27.20
2018-11-11T21:24:11.141Z,26.23
2018-11-11T21:26:38.875Z,27.83
2018-11-11T21:29:07.575Z,25.53
2018-11-11T21:31:35.430Z,25.63
2018-11-11T21:34:03.543Z,24.23
2018-11-11T21:36:31.261Z,24.07
2018-11-11T21:38:59.010Z,23.80
2018-11-11T21:41:26.793Z,23.73
2018-11-11T21:43:54.517Z,24.67
2018-11-11T21:46:22.683Z,24.07
2018-11-11T21:48:50.486Z,24.00
2018-11-11T21:51:18.218Z,24.23
2018-11-11T21:53:45.977Z,24.13
2018-11-11T21:56:13.706Z,22.90
2018-11-11T21:58:41.458Z,24.73
2018-11-11T22:01:09.190Z,25.37
2018-11-11T22:03:36.963Z,26.53
2018-11-11T22:06:04.967Z,27.77
2018-11-11T22:08:32.712Z,27.90
2018-11-11T22:11:00.555Z,26.93
2018-11-11T22:13:28.302Z,26.63
2018-11-11T22:15:56.188Z,26.77
2018-11-11T22:18:23.818Z,26.47
2018-11-11T22:20:51.534Z,25.10
2018-11-11T22:23:19.316Z,24.27
2018-11-11T22:25:47.043Z,24.23
2018-11-11T22:28:14.815Z,23.30
2018-11-11T22:30:42.563Z,24.37
2018-11-11T22:33:10.292Z,24.50
2018-11-11T22:35:38.015Z,23.47
2018-11-11T22:38:05.866Z,24.37
2018-11-11T22:40:33.649Z,22.53
2018-11-11T22:43:01.416Z,21.60
2018-11-11T22:45:29.146Z,21.67
2018-11-11T22:47:56.870Z,20.00
2018-11-11T22:50:24.886Z,21.30
2018-11-11T22:52:52.706Z,21.03
2018-11-11T22:55:20.474Z,20.10
2018-11-11T22:57:48.462Z,19.67
2018-11-11T23:00:21.982Z,20.13
2018-11-11T23:02:50.374Z,18.97
2018-11-11T23:05:19.144Z,18.60
2018-11-11T23:07:46.918Z,19.47
2018-11-11T23:10:14.833Z,21.03
2018-11-11T23:12:42.617Z,20.73
2018-11-11T23:15:11.695Z,19.93
2018-11-11T23:17:39.418Z,19.90
2018-11-11T23:20:09.065Z,21.03
2018-11-11T23:22:36.838Z,20.20
2018-11-11T23:25:05.050Z,18.97
2018-11-11T23:27:32.786Z,20.87
2018-11-11T23:30:00.787Z,20.27
2018-11-11T23:32:28.507Z,19.67
2018-11-11T23:34:56.230Z,19.90
2018-11-11T23:37:23.998Z,20.37
2018-11-11T23:39:51.721Z,20.27
2018-11-11T23:42:19.436Z,20.67
2018-11-11T23:44:47.162Z,19.77
2018-11-11T23:47:14.899Z,19.73
2018-11-11T23:49:42.626Z,20.00
2018-11-11T23:52:10.372Z,18.80
2018-11-11T23:54:38.441Z,20.93
2018-11-11T23:57:06.184Z,20.90
2018-11-11T23:59:33.906Z,20.00
